Time;durP1;ratioP1;P1;durP2;ratioP2;P2;SDS_P1;SDS_P2;PMS_P1;PMS_P2;Temp;Humidity;BMP_temperature;BMP_pressure;BME280_temperature;BME280_humidity;BME280_pressure;Samples;Min_cycle;Max_cycle;Signal;HPM_P1;HPM_P2
2021/04/28 00:01:33;;;;;;;5.8;2.3;;;;;;;8.76;72.77148;926.8239;;;;
2021/04/28 00:03:58;;;;;;;2.5;2.2;;;;;;;8.61;73.41992;926.8068;;;;
2021/04/28 00:06:28;;;;;;;2.1;1.7;;;;;;;8.57;73.69629;926.8058;;;;
2021/04/28 00:08:53;;;;;;;3.5;2.1;;;;;;;8.27;74.76758;926.7874;;;;
2021/04/28 00:11:20;;;;;;;2.8;1.8;;;;;;;8.36;74.7168;926.8042;;;;
2021/04/28 00:13:45;;;;;;;2.6;1.8;;;;;;;8.51;74.00293;926.8114;;;;
2021/04/28 00:16:22;;;;;;;2.7;1.9;;;;;;;8.53;73.89453;926.8359;;;;
2021/04/28 00:18:51;;;;;;;2.5;2;;;;;;;8.68;73.17871;926.7464;;;;
2021/04/28 00:21:21;;;;;;;3.8;2;;;;;;;8.57;73.21875;926.7383;;;;
2021/04/28 00:23:46;;;;;;;2.7;1.9;;;;;;;8.53;73.16504;926.7844;;;;
2021/04/28 00:26:15;;;;;;;2;1.6;;;;;;;8.48;73.20313;926.6845;;;;
2021/04/28 00:28:38;;;;;;;4;2;;;;;;;8.42;73.60156;926.7767;;;;
2021/04/28 00:31:04;;;;;;;4.7;2.1;;;;;;;8.28;74.28223;926.7628;;;;
2021/04/28 00:33:29;;;;;;;5.5;2.5;;;;;;;8.19;74.69727;926.7031;;;;
2021/04/28 00:35:55;;;;;;;3.5;1.9;;;;;;;7.98;76.2041;926.6315;;;;
2021/04/28 00:38:21;;;;;;;2.8;1.8;;;;;;;7.92;76.48828;926.5839;;;;
2021/04/28 00:40:48;;;;;;;4.2;2.5;;;;;;;8.05;76.30762;926.577;;;;
2021/04/28 00:43:13;;;;;;;2.8;1.9;;;;;;;8.08;76.01953;926.627;;;;
2021/04/28 00:45:43;;;;;;;3.7;2.6;;;;;;;8.21;75.42871;926.5598;;;;
2021/04/28 00:48:07;;;;;;;4;1.9;;;;;;;8.33;74.62012;926.5977;;;;
2021/04/28 00:50:35;;;;;;;3.4;1.7;;;;;;;8.27;74.68848;926.5851;;;;
2021/04/28 00:53:00;;;;;;;5;2.1;;;;;;;8.36;74.41016;926.5639;;;;
2021/04/28 00:55:28;;;;;;;3.6;2.3;;;;;;;8.46;74.05273;926.4426;;;;
2021/04/28 00:57:55;;;;;;;4.9;2.3;;;;;;;8.56;73.7041;926.5591;;;;
2021/04/28 01:00:20;;;;;;;3;2.1;;;;;;;8.62;73.31738;926.5538;;;;
2021/04/28 01:02:47;;;;;;;3.8;2.3;;;;;;;8.71;73.21777;926.5955;;;;
2021/04/28 01:05:12;;;;;;;5.2;2.6;;;;;;;8.78;72.74219;926.6294;;;;
2021/04/28 01:07:39;;;;;;;4.6;2.6;;;;;;;8.87;72.5625;926.6406;;;;
2021/04/28 01:10:04;;;;;;;3.8;2.5;;;;;;;8.9;72.22754;926.6381;;;;
2021/04/28 01:12:32;;;;;;;4.4;1.9;;;;;;;8.9;72.1709;926.5968;;;;
2021/04/28 01:14:56;;;;;;;2.6;1.9;;;;;;;8.91;72.13965;926.6031;;;;
2021/04/28 01:17:25;;;;;;;3.5;1.9;;;;;;;8.95;71.99609;926.6166;;;;
2021/04/28 01:19:54;;;;;;;4.3;2.4;;;;;;;8.85;72.28809;926.6066;;;;
2021/04/28 01:22:19;;;;;;;3.7;2.2;;;;;;;8.86;72.37891;926.6082;;;;
2021/04/28 01:24:45;;;;;;;3.2;2.4;;;;;;;8.82;72.30469;926.532;;;;
2021/04/28 01:27:10;;;;;;;2.8;2.1;;;;;;;8.7;72.85352;926.6694;;;;
2021/04/28 01:29:39;;;;;;;3.7;2.3;;;;;;;8.73;72.94922;926.6248;;;;
2021/04/28 01:32:04;;;;;;;3.9;2.1;;;;;;;8.76;72.9668;926.5891;;;;
2021/04/28 01:34:29;;;;;;;4.8;2.5;;;;;;;8.7;73.19434;926.5955;;;;
2021/04/28 01:36:57;;;;;;;2.7;1.8;;;;;;;8.65;73.27637;926.6464;;;;
2021/04/28 01:39:22;;;;;;;2.2;1.7;;;;;;;8.71;73.16211;926.5677;;;;
2021/04/28 01:41:51;;;;;;;4.2;2.3;;;;;;;8.77;73.12695;926.6033;;;;
2021/04/28 01:44:16;;;;;;;3.5;2.2;;;;;;;8.75;73.09961;926.6136;;;;
2021/04/28 01:46:48;;;;;;;5.1;2.1;;;;;;;8.7;73.37695;926.6519;;;;
2021/04/28 01:49:15;;;;;;;2.7;1.8;;;;;;;8.73;73.34668;926.5898;;;;
2021/04/28 01:51:40;;;;;;;3.3;2;;;;;;;8.75;72.91797;926.6763;;;;
2021/04/28 01:54:07;;;;;;;4.6;2.5;;;;;;;8.76;72.93066;926.6255;;;;
2021/04/28 01:56:32;;;;;;;3;2;;;;;;;8.76;72.7959;926.6358;;;;
2021/04/28 01:58:57;;;;;;;3.6;2.1;;;;;;;8.75;72.75879;926.67;;;;
2021/04/28 02:01:23;;;;;;;4.9;1.8;;;;;;;8.7;73.25098;926.6526;;;;
2021/04/28 02:03:48;;;;;;;3.6;2.5;;;;;;;8.66;73.41602;926.6234;;;;
2021/04/28 02:06:13;;;;;;;3.3;1.9;;;;;;;8.63;73.44531;926.6497;;;;
2021/04/28 02:08:39;;;;;;;6.4;2.3;;;;;;;8.59;73.69922;926.5637;;;;
2021/04/28 02:11:04;;;;;;;2.6;1.7;;;;;;;8.54;73.80371;926.606;;;;
2021/04/28 02:13:29;;;;;;;2.9;2.1;;;;;;;8.47;74.13184;926.6116;;;;
2021/04/28 02:16:11;;;;;;;4.9;2.1;;;;;;;8.31;75.02441;926.5978;;;;
2021/04/28 02:18:43;;;;;;;2.8;1.9;;;;;;;8.27;75.25586;926.5256;;;;
2021/04/28 02:21:15;;;;;;;2.4;2;;;;;;;8.16;75.90723;926.4993;;;;
2021/04/28 02:23:49;;;;;;;5.4;2;;;;;;;8.17;75.72754;926.5223;;;;
2021/04/28 02:26:17;;;;;;;3;2.1;;;;;;;8.11;75.98828;926.5698;;;;
2021/04/28 02:28:45;;;;;;;3.1;2.2;;;;;;;8.11;76.06934;926.5184;;;;
2021/04/28 02:31:10;;;;;;;2.7;1.9;;;;;;;8.13;75.91211;926.5446;;;;
2021/04/28 02:33:40;;;;;;;3.2;1.9;;;;;;;8.09;76.14453;926.5453;;;;
2021/04/28 02:36:07;;;;;;;6.5;2.4;;;;;;;8;76.72949;926.5078;;;;
2021/04/28 02:38:32;;;;;;;2.8;2;;;;;;;7.88;77.24219;926.4888;;;;
2021/04/28 02:41:01;;;;;;;3;1.9;;;;;;;7.87;77.28418;926.4619;;;;
2021/04/28 02:43:31;;;;;;;2.1;1.5;;;;;;;7.87;77.41113;926.4745;;;;
2021/04/28 02:45:56;;;;;;;4.1;2;;;;;;;7.79;77.86328;926.4235;;;;
2021/04/28 02:48:22;;;;;;;3.7;2.3;;;;;;;7.79;78.09961;926.3656;;;;
2021/04/28 02:50:47;;;;;;;3.6;2.2;;;;;;;7.86;77.73828;926.3311;;;;
2021/04/28 02:53:15;;;;;;;3.1;1.9;;;;;;;7.98;77.13672;926.3073;;;;
2021/04/28 02:55:41;;;;;;;3.9;2.2;;;;;;;8.11;76.61426;926.3011;;;;
2021/04/28 02:58:09;;;;;;;4;1.9;;;;;;;8.11;76.76172;926.2234;;;;
2021/04/28 03:00:34;;;;;;;2.4;2;;;;;;;8.12;76.67285;926.2758;;;;
2021/04/28 03:03:01;;;;;;;2.6;2.2;;;;;;;8.16;76.46387;926.324;;;;
2021/04/28 03:05:26;;;;;;;3;2.1;;;;;;;8.19;76.32227;926.2963;;;;
2021/04/28 03:07:54;;;;;;;2.2;2;;;;;;;8.22;76.29102;926.2434;;;;
2021/04/28 03:10:20;;;;;;;2.3;1.8;;;;;;;8.26;75.91309;926.2322;;;;
2021/04/28 03:12:49;;;;;;;2.1;1.6;;;;;;;8.23;76.04492;926.2078;;;;
2021/04/28 03:15:40;;;;;;;4.7;2.2;;;;;;;8.07;76.45898;926.3044;;;;
2021/04/28 03:18:07;;;;;;;2;1.5;;;;;;;8.01;76.78809;926.3199;;;;
2021/04/28 03:20:39;;;;;;;1.9;1.7;;;;;;;8.04;76.73633;926.3495;;;;
2021/04/28 03:23:11;;;;;;;3.8;2.3;;;;;;;8.03;76.85938;926.363;;;;
2021/04/28 03:25:35;;;;;;;3.2;2.1;;;;;;;7.99;77.125;926.3904;;;;
2021/04/28 03:28:04;;;;;;;3.4;2.2;;;;;;;7.95;77.35742;926.4571;;;;
2021/04/28 03:30:29;;;;;;;2.9;2;;;;;;;7.87;77.74023;926.4523;;;;
2021/04/28 03:32:58;;;;;;;2.2;1.9;;;;;;;7.84;77.84863;926.457;;;;
2021/04/28 03:35:23;;;;;;;3;2;;;;;;;7.79;78.1582;926.4694;;;;
2021/04/28 03:37:52;;;;;;;3.2;1.9;;;;;;;7.9;77.87109;926.4983;;;;
2021/04/28 03:40:17;;;;;;;2.6;1.6;;;;;;;7.97;77.41699;926.5411;;;;
2021/04/28 03:42:43;;;;;;;4.6;2.1;;;;;;;7.88;77.61816;926.538;;;;
2021/04/28 03:45:08;;;;;;;4.3;2.1;;;;;;;7.9;77.87109;926.5396;;;;
2021/04/28 03:47:34;;;;;;;3.7;2.1;;;;;;;7.91;77.51953;926.4722;;;;
2021/04/28 03:49:59;;;;;;;3.8;2.3;;;;;;;7.8;77.67188;926.471;;;;
2021/04/28 03:52:24;;;;;;;2.9;2.3;;;;;;;7.77;77.88086;926.475;;;;
2021/04/28 03:54:49;;;;;;;3.1;2.2;;;;;;;7.87;77.33105;926.5014;;;;
2021/04/28 03:57:16;;;;;;;3;2.4;;;;;;;7.89;77.1875;926.5142;;;;
2021/04/28 03:59:41;;;;;;;9.7;2.5;;;;;;;7.84;77.18848;926.526;;;;
2021/04/28 04:02:30;;;;;;;4.8;2.3;;;;;;;7.76;77.58203;926.5605;;;;
2021/04/28 04:04:55;;;;;;;2.2;1.9;;;;;;;7.84;77.33594;926.5252;;;;
2021/04/28 04:07:22;;;;;;;3.1;2.1;;;;;;;7.78;77.54199;926.5145;;;;
2021/04/28 04:09:47;;;;;;;5.3;2.3;;;;;;;7.75;77.54883;926.5082;;;;
2021/04/28 04:12:14;;;;;;;2.5;1.6;;;;;;;7.76;77.62793;926.5605;;;;
2021/04/28 04:14:40;;;;;;;3.1;1.9;;;;;;;7.8;77.59082;926.532;;;;
2021/04/28 04:17:10;;;;;;;2.9;1.9;;;;;;;7.78;77.59863;926.4489;;;;
2021/04/28 04:19:39;;;;;;;5.7;2.6;;;;;;;7.77;77.79004;926.5717;;;;
2021/04/28 04:22:04;;;;;;;6.6;2.3;;;;;;;7.72;78.0293;926.5295;;;;
2021/04/28 04:24:32;;;;;;;3.6;1.7;;;;;;;7.61;78.46484;926.5414;;;;
2021/04/28 04:26:57;;;;;;;2.2;2;;;;;;;7.71;78.33398;926.5344;;;;
2021/04/28 04:29:22;;;;;;;4.7;2.5;;;;;;;7.79;78.05566;926.5455;;;;
2021/04/28 04:31:49;;;;;;;3.4;2.7;;;;;;;7.76;77.97949;926.5764;;;;
2021/04/28 04:34:14;;;;;;;3.6;2.7;;;;;;;7.7;78.2666;926.5455;;;;
2021/04/28 04:36:43;;;;;;;4.2;2.4;;;;;;;7.91;77.72363;926.5514;;;;
2021/04/28 04:39:07;;;;;;;3;2.1;;;;;;;8.06;76.87695;926.558;;;;
2021/04/28 04:41:32;;;;;;;3.7;2.5;;;;;;;8.21;76.42578;926.5856;;;;
2021/04/28 04:43:58;;;;;;;4.8;2.3;;;;;;;8.34;75.88184;926.5925;;;;
2021/04/28 04:46:25;;;;;;;3.1;2.1;;;;;;;8.49;75.04395;926.5878;;;;
2021/04/28 04:48:50;;;;;;;6.4;2.7;;;;;;;8.5;74.65918;926.5536;;;;
2021/04/28 04:51:16;;;;;;;2.6;2;;;;;;;8.55;74.29395;926.5678;;;;
2021/04/28 04:53:41;;;;;;;3;1.9;;;;;;;8.57;74.07129;926.5543;;;;
2021/04/28 04:56:08;;;;;;;2.7;1.7;;;;;;;8.38;74.66309;926.5416;;;;
2021/04/28 04:58:33;;;;;;;2.5;2.1;;;;;;;8.3;75.0791;926.4384;;;;
2021/04/28 05:01:00;;;;;;;2.9;1.8;;;;;;;8.38;75.15039;926.5726;;;;
2021/04/28 05:03:25;;;;;;;4;1.5;;;;;;;8.22;75.52051;926.5385;;;;
2021/04/28 05:05:50;;;;;;;6;2.4;;;;;;;8.23;75.81738;926.5582;;;;
2021/04/28 05:08:15;;;;;;;2.3;1.9;;;;;;;8.24;75.94434;926.4543;;;;
2021/04/28 05:10:43;;;;;;;3;2.2;;;;;;;8.46;75.47266;926.4728;;;;
2021/04/28 05:13:08;;;;;;;5.3;2.1;;;;;;;8.61;74.56641;926.4907;;;;
2021/04/28 05:15:57;;;;;;;2.9;1.7;;;;;;;8.72;74.19824;926.3979;;;;
2021/04/28 05:18:27;;;;;;;3;2;;;;;;;8.67;74.37207;926.3972;;;;
2021/04/28 05:20:58;;;;;;;2.5;2.1;;;;;;;8.81;74.48633;926.5003;;;;
2021/04/28 05:23:26;;;;;;;3;1.9;;;;;;;8.91;74.57227;926.4864;;;;
2021/04/28 05:25:51;;;;;;;3;2.2;;;;;;;8.94;74.49902;926.4164;;;;
2021/04/28 05:28:19;;;;;;;3.8;2.6;;;;;;;8.99;73.90332;926.5234;;;;
2021/04/28 05:30:44;;;;;;;3.2;2.1;;;;;;;10.02;70.18164;926.4739;;;;
2021/04/28 05:33:13;;;;;;;3.5;2.3;;;;;;;11.77;64.2002;926.4406;;;;
2021/04/28 05:35:45;;;;;;;2.4;1.5;;;;;;;12.82;59.61719;926.3847;;;;
2021/04/28 05:38:15;;;;;;;3.6;2.1;;;;;;;13.72;57.03711;926.3617;;;;
2021/04/28 05:40:44;;;;;;;2.7;1.9;;;;;;;13.7;56.37891;926.3948;;;;
2021/04/28 05:43:09;;;;;;;2.3;1.6;;;;;;;13.44;56.23047;926.3674;;;;
2021/04/28 05:45:43;;;;;;;3.4;2.2;;;;;;;12.75;58.81445;926.3594;;;;
2021/04/28 05:48:06;;;;;;;2.2;1.7;;;;;;;12.86;59.63281;926.2841;;;;
2021/04/28 05:50:33;;;;;;;2;1.3;;;;;;;12.58;59.71973;926.3109;;;;
2021/04/28 05:52:58;;;;;;;2;1.6;;;;;;;13.26;58.32129;926.2731;;;;
2021/04/28 05:55:24;;;;;;;1.9;1.7;;;;;;;14.03;55.84473;926.2576;;;;
2021/04/28 05:57:49;;;;;;;3.3;1.7;;;;;;;14.57;54.03809;926.3158;;;;
2021/04/28 06:00:15;;;;;;;2.4;1.5;;;;;;;15.21;51.92285;926.2814;;;;
2021/04/28 06:02:42;;;;;;;2.9;1.7;;;;;;;15.59;50.92871;926.2251;;;;
2021/04/28 06:05:09;;;;;;;4.2;1.7;;;;;;;15.73;50.34473;926.1994;;;;
2021/04/28 06:07:34;;;;;;;2;1;;;;;;;15.54;48.9248;926.1876;;;;
2021/04/28 06:09:59;;;;;;;1.6;1.1;;;;;;;14.67;51.04102;926.2198;;;;
2021/04/28 06:12:24;;;;;;;5.8;1.3;;;;;;;14.29;52.29688;926.2413;;;;
2021/04/28 06:14:54;;;;;;;1.5;1.1;;;;;;;14.3;52.54004;926.1962;;;;
2021/04/28 06:17:23;;;;;;;1.5;1.4;;;;;;;14.54;51.95898;926.1636;;;;
2021/04/28 06:19:50;;;;;;;3;1.3;;;;;;;14.94;51.60254;926.0864;;;;
2021/04/28 06:22:15;;;;;;;1.8;1.4;;;;;;;15.66;49.80371;926.038;;;;
2021/04/28 06:24:44;;;;;;;4.5;2;;;;;;;15.98;48.30273;926.0606;;;;
2021/04/28 06:27:09;;;;;;;1.9;1.4;;;;;;;17.2;46.01465;926.0028;;;;
2021/04/28 06:29:39;;;;;;;3.3;1.2;;;;;;;18.69;43.62305;925.9288;;;;
2021/04/28 06:32:10;;;;;;;1.8;1.3;;;;;;;20.44;40.29297;925.9052;;;;
2021/04/28 06:34:39;;;;;;;1.4;1.1;;;;;;;20.96;37.12402;925.9401;;;;
2021/04/28 06:37:04;;;;;;;1.3;0.9;;;;;;;19.54;39.74512;926.0228;;;;
2021/04/28 06:39:32;;;;;;;2.3;1.4;;;;;;;20.11;38.48926;925.9281;;;;
2021/04/28 06:41:57;;;;;;;1.8;1;;;;;;;21.19;37.38965;925.9109;;;;
2021/04/28 06:44:23;;;;;;;3.1;1.5;;;;;;;21.78;35.77637;925.8842;;;;
2021/04/28 06:46:48;;;;;;;0.7;0.6;;;;;;;22.53;34.46289;925.905;;;;
2021/04/28 06:49:15;;;;;;;6.9;1.3;;;;;;;21.03;36.28809;925.8429;;;;
2021/04/28 06:51:40;;;;;;;5.2;1.1;;;;;;;21.23;36.33984;925.8523;;;;
2021/04/28 06:54:05;;;;;;;0.8;0.7;;;;;;;21.13;36.57715;925.8199;;;;
2021/04/28 06:56:31;;;;;;;1.1;1;;;;;;;21.08;36.46777;925.7892;;;;
2021/04/28 06:58:56;;;;;;;1.6;1;;;;;;;22.97;35.61328;925.8412;;;;
2021/04/28 07:01:22;;;;;;;0.9;0.6;;;;;;;22.9;32.54199;925.7992;;;;
2021/04/28 07:03:48;;;;;;;2.2;0.8;;;;;;;23.63;32.63086;925.8369;;;;
2021/04/28 07:06:14;;;;;;;2.3;1;;;;;;;25.02;30.21973;925.793;;;;
2021/04/28 07:08:39;;;;;;;1.6;0.8;;;;;;;26.1;29.97363;925.7128;;;;
2021/04/28 07:11:08;;;;;;;1.4;1;;;;;;;26.92;29.10352;925.726;;;;
2021/04/28 07:13:39;;;;;;;1.4;1.1;;;;;;;27.03;25.94629;925.6536;;;;
2021/04/28 07:16:12;;;;;;;1.6;1;;;;;;;27.34;25.20508;925.6948;;;;
2021/04/28 07:18:38;;;;;;;1.8;1.1;;;;;;;26.32;26.43848;925.6805;;;;
2021/04/28 07:21:06;;;;;;;1.1;0.8;;;;;;;24.94;29.3418;925.6369;;;;
2021/04/28 07:23:32;;;;;;;0.9;0.6;;;;;;;26.52;27.07715;925.5781;;;;
2021/04/28 07:26:05;;;;;;;0.8;0.7;;;;;;;26.56;27.10352;925.5969;;;;
2021/04/28 07:28:36;;;;;;;1.5;0.6;;;;;;;27.97;25.00293;925.5686;;;;
2021/04/28 07:31:10;;;;;;;0.8;0.6;;;;;;;28.99;24.60742;925.56;;;;
2021/04/28 07:33:40;;;;;;;2.6;0.9;;;;;;;29.14;23.10254;925.5284;;;;
2021/04/28 07:36:10;;;;;;;0.7;0.7;;;;;;;30.15;22.2832;925.5156;;;;
2021/04/28 07:38:40;;;;;;;0.5;0.4;;;;;;;28.03;23.55664;925.4927;;;;
2021/04/28 07:41:05;;;;;;;1.1;0.8;;;;;;;29.03;23.08496;925.5266;;;;
2021/04/28 07:43:34;;;;;;;1.5;0.8;;;;;;;29.64;22.83008;925.4716;;;;
2021/04/28 07:45:59;;;;;;;1.2;0.6;;;;;;;30.38;22.52148;925.472;;;;
2021/04/28 07:48:25;;;;;;;0.6;0.6;;;;;;;30.48;21.27246;925.4885;;;;
2021/04/28 07:50:50;;;;;;;1;0.6;;;;;;;30.24;21.12988;925.4938;;;;
2021/04/28 07:53:16;;;;;;;0.6;0.5;;;;;;;30.1;21.58887;925.5087;;;;
2021/04/28 07:55:43;;;;;;;0.4;0.4;;;;;;;30.93;20.63574;925.4828;;;;
2021/04/28 07:58:08;;;;;;;0.7;0.5;;;;;;;32.23;19.62793;925.4588;;;;
2021/04/28 08:00:33;;;;;;;1.8;1;;;;;;;32.88;19.99219;925.4894;;;;
2021/04/28 08:03:00;;;;;;;1.4;0.7;;;;;;;32.13;19.64746;925.4766;;;;
2021/04/28 08:05:25;;;;;;;1.3;0.7;;;;;;;32.88;19.89648;925.4509;;;;
2021/04/28 08:07:53;;;;;;;2.2;0.7;;;;;;;33.43;17.62402;925.4573;;;;
2021/04/28 08:10:20;;;;;;;1.4;0.8;;;;;;;34.22;18.02832;925.4606;;;;
2021/04/28 08:12:47;;;;;;;1.3;0.8;;;;;;;30.92;19.42773;925.4213;;;;
2021/04/28 08:15:37;;;;;;;3.9;0.8;;;;;;;33.04;18.61816;925.4171;;;;
2021/04/28 08:18:08;;;;;;;1.3;0.8;;;;;;;34.07;18.50293;925.3987;;;;
2021/04/28 08:20:45;;;;;;;1.1;0.6;;;;;;;32.33;18.06152;925.442;;;;
2021/04/28 08:23:08;;;;;;;1.8;0.8;;;;;;;31.7;18.50293;925.4529;;;;
2021/04/28 08:25:39;;;;;;;0.4;0.4;;;;;;;31.64;19.4834;925.402;;;;
2021/04/28 08:28:09;;;;;;;1.6;0.8;;;;;;;33.35;19.55664;925.3846;;;;
2021/04/28 08:30:42;;;;;;;2;0.7;;;;;;;33.28;19.08398;925.3513;;;;
2021/04/28 08:33:12;;;;;;;0.4;0.4;;;;;;;33.92;17.76367;925.3292;;;;
2021/04/28 08:35:43;;;;;;;0.8;0.6;;;;;;;34.5;17.97852;925.3647;;;;
2021/04/28 08:38:16;;;;;;;0.5;0.4;;;;;;;34.8;17.44824;925.3847;;;;
2021/04/28 08:40:50;;;;;;;3.3;0.7;;;;;;;35.55;16.02734;925.4155;;;;
2021/04/28 08:43:18;;;;;;;1.2;0.5;;;;;;;35.36;16.27441;925.3964;;;;
2021/04/28 08:45:43;;;;;;;1.4;0.4;;;;;;;36.01;15.42676;925.4473;;;;
2021/04/28 08:48:10;;;;;;;1.2;0.5;;;;;;;34.83;17.5332;925.4135;;;;
2021/04/28 08:50:35;;;;;;;0.6;0.6;;;;;;;34.36;17.50391;925.4217;;;;
2021/04/28 08:53:03;;;;;;;0.4;0.4;;;;;;;32.87;19.41602;925.4146;;;;
2021/04/28 08:55:28;;;;;;;0.6;0.3;;;;;;;31.66;21.63867;925.4473;;;;
2021/04/28 08:57:55;;;;;;;0.6;0.6;;;;;;;32.01;21.18848;925.326;;;;
2021/04/28 09:00:20;;;;;;;2.6;0.9;;;;;;;32.58;20.41113;925.4249;;;;
2021/04/28 09:02:45;;;;;;;0.8;0.6;;;;;;;30.83;23.4043;925.3848;;;;
2021/04/28 09:05:10;;;;;;;3.4;1;;;;;;;30.32;23.8916;925.3585;;;;
2021/04/28 09:07:35;;;;;;;1.5;0.9;;;;;;;30.54;22.60156;925.3586;;;;
2021/04/28 09:10:03;;;;;;;1.4;0.9;;;;;;;30.22;24.85352;925.3552;;;;
2021/04/28 09:12:28;;;;;;;0.6;0.6;;;;;;;29.78;26.45117;925.2787;;;;
2021/04/28 09:14:54;;;;;;;0.6;0.5;;;;;;;28.87;25.92188;925.3221;;;;
2021/04/28 09:17:30;;;;;;;1.1;0.8;;;;;;;28.2;25.22949;925.2817;;;;
2021/04/28 09:19:59;;;;;;;2;0.8;;;;;;;28.33;26.12793;925.2924;;;;
2021/04/28 09:22:24;;;;;;;0.5;0.5;;;;;;;28.33;26.56836;925.2336;;;;
2021/04/28 09:24:53;;;;;;;1.6;1;;;;;;;28.67;26.58789;925.1848;;;;
2021/04/28 09:27:18;;;;;;;1.6;1;;;;;;;27.72;27.18457;925.16;;;;
2021/04/28 09:29:48;;;;;;;1.6;0.7;;;;;;;27.64;27.80859;925.2302;;;;
2021/04/28 09:32:13;;;;;;;1.3;0.6;;;;;;;27.81;26.19336;925.1921;;;;
2021/04/28 09:34:38;;;;;;;2.2;0.9;;;;;;;27.67;28.27344;925.1257;;;;
2021/04/28 09:37:06;;;;;;;1.2;0.7;;;;;;;26.96;30.23242;925.1398;;;;
2021/04/28 09:39:31;;;;;;;2.4;1.5;;;;;;;26.91;29.74316;925.1241;;;;
2021/04/28 09:41:57;;;;;;;1.4;0.7;;;;;;;26.73;29.54102;925.1378;;;;
2021/04/28 09:44:22;;;;;;;1;0.5;;;;;;;26.51;29.98828;925.1172;;;;
2021/04/28 09:46:47;;;;;;;0.6;0.5;;;;;;;25.74;29.94922;925.0668;;;;
2021/04/28 09:49:12;;;;;;;1.1;0.6;;;;;;;25.53;29.66309;925.0502;;;;
2021/04/28 09:51:39;;;;;;;1.1;0.7;;;;;;;25.23;29.53711;925.0646;;;;
2021/04/28 09:54:04;;;;;;;0.7;0.7;;;;;;;24.65;31.32617;925.0779;;;;
2021/04/28 09:56:30;;;;;;;2.1;1.1;;;;;;;24.76;32.96191;925.1005;;;;
2021/04/28 09:58:55;;;;;;;1;0.7;;;;;;;24.85;32.13086;925.0865;;;;
2021/04/28 10:01:22;;;;;;;1.3;0.8;;;;;;;24.33;32.77637;925.0748;;;;
2021/04/28 10:03:49;;;;;;;1.5;0.9;;;;;;;23.7;33.2832;925.0372;;;;
2021/04/28 10:06:13;;;;;;;0.8;0.7;;;;;;;23.37;33.68262;925.0789;;;;
2021/04/28 10:08:39;;;;;;;4.1;0.6;;;;;;;23.52;33.09375;924.986;;;;
2021/04/28 10:11:04;;;;;;;0.9;0.7;;;;;;;22.99;34.91016;924.9821;;;;
2021/04/28 10:13:31;;;;;;;0.8;0.8;;;;;;;23.15;34.92285;924.9905;;;;
2021/04/28 10:16:04;;;;;;;0.8;0.7;;;;;;;23.53;34.02344;924.9914;;;;
2021/04/28 10:18:36;;;;;;;0.7;0.6;;;;;;;23.51;33.96289;925.0262;;;;
2021/04/28 10:21:03;;;;;;;1.5;1.1;;;;;;;22.9;34.98535;924.9981;;;;
2021/04/28 10:23:32;;;;;;;1;0.8;;;;;;;22.3;36.12305;924.9526;;;;
2021/04/28 10:26:01;;;;;;;0.6;0.6;;;;;;;22.01;36.66211;925.0408;;;;
2021/04/28 10:28:27;;;;;;;1.5;0.8;;;;;;;21.84;36.6123;924.9803;;;;
2021/04/28 10:30:59;;;;;;;1.5;1.2;;;;;;;21.3;38.70996;924.8937;;;;
2021/04/28 10:33:25;;;;;;;1.1;0.8;;;;;;;21.52;37.21777;925.0112;;;;
2021/04/28 10:35:51;;;;;;;1.3;1.1;;;;;;;21.58;37.77344;924.9592;;;;
2021/04/28 10:38:19;;;;;;;1.1;0.7;;;;;;;21.7;37.60742;924.9934;;;;
2021/04/28 10:40:44;;;;;;;1.6;1;;;;;;;21.46;39.08594;924.9933;;;;
2021/04/28 10:43:10;;;;;;;1;0.9;;;;;;;21.28;38.3916;925.035;;;;
2021/04/28 10:45:38;;;;;;;1.2;0.9;;;;;;;21.33;38.02148;924.973;;;;
2021/04/28 10:48:07;;;;;;;1.4;0.9;;;;;;;21.12;38.93945;925.0306;;;;
2021/04/28 10:50:29;;;;;;;0.7;0.7;;;;;;;21.01;38.96484;924.9945;;;;
2021/04/28 10:52:58;;;;;;;1.8;1;;;;;;;20.96;40.25879;924.9777;;;;
2021/04/28 10:55:20;;;;;;;1.3;0.9;;;;;;;20.96;38.60938;925.0541;;;;
2021/04/28 10:57:46;;;;;;;0.8;0.8;;;;;;;20.92;38.0332;925.0325;;;;
2021/04/28 11:00:13;;;;;;;1.5;1;;;;;;;20.83;38.2002;925.08;;;;
2021/04/28 11:02:38;;;;;;;2.2;1;;;;;;;20.92;38.0918;925.0371;;;;
2021/04/28 11:05:03;;;;;;;0.8;0.6;;;;;;;20.63;38.11328;925.0486;;;;
2021/04/28 11:07:31;;;;;;;0.6;0.6;;;;;;;20.71;38.33105;924.9938;;;;
2021/04/28 11:09:59;;;;;;;1.8;0.9;;;;;;;20.64;39.58691;925.0496;;;;
2021/04/28 11:12:28;;;;;;;0.9;0.7;;;;;;;20.4;40.03223;925.0485;;;;
2021/04/28 11:14:53;;;;;;;0.8;0.5;;;;;;;20.47;38.63672;925.0134;;;;
2021/04/28 11:17:24;;;;;;;0.9;0.8;;;;;;;20.58;39.37012;925.0341;;;;
2021/04/28 11:19:51;;;;;;;1.8;0.8;;;;;;;20.36;38.97852;925.0004;;;;
2021/04/28 11:22:16;;;;;;;0.7;0.7;;;;;;;20.26;39.85547;925.0671;;;;
2021/04/28 11:24:42;;;;;;;0.7;0.6;;;;;;;20.17;40.03418;925.0008;;;;
2021/04/28 11:27:07;;;;;;;2.2;1.4;;;;;;;20.23;40.18066;925.0595;;;;
2021/04/28 11:29:33;;;;;;;0.4;0.4;;;;;;;20.59;38.70605;925.0148;;;;
2021/04/28 11:31:59;;;;;;;1;0.8;;;;;;;20.34;39.44336;925.0372;;;;
2021/04/28 11:34:26;;;;;;;1;0.8;;;;;;;19.9;39.8125;925.0947;;;;
2021/04/28 11:36:51;;;;;;;3.4;0.8;;;;;;;19.75;40.60352;925.068;;;;
2021/04/28 11:39:17;;;;;;;1.3;0.8;;;;;;;19.81;41.28516;925.0877;;;;
2021/04/28 11:41:44;;;;;;;5.5;1.4;;;;;;;20.02;40.12695;925.0545;;;;
2021/04/28 11:44:10;;;;;;;0.8;0.7;;;;;;;19.97;40.71582;925.0644;;;;
2021/04/28 11:46:36;;;;;;;1.7;0.9;;;;;;;20.08;41.13477;925.1006;;;;
2021/04/28 11:49:01;;;;;;;1.3;0.6;;;;;;;19.96;40.78613;925.1262;;;;
2021/04/28 11:51:28;;;;;;;1.7;0.9;;;;;;;20.29;39.77637;925.1058;;;;
2021/04/28 11:53:53;;;;;;;4;0.7;;;;;;;20.45;38.64551;925.0801;;;;
2021/04/28 11:56:19;;;;;;;0.6;0.6;;;;;;;20.42;38.44531;925.0617;;;;
2021/04/28 11:58:44;;;;;;;0.9;0.7;;;;;;;20.59;39.34863;925.0859;;;;
2021/04/28 12:01:12;;;;;;;1;0.7;;;;;;;20.8;37.90625;925.014;;;;
2021/04/28 12:03:36;;;;;;;0.7;0.6;;;;;;;20.65;39.4248;925.0263;;;;
2021/04/28 12:06:01;;;;;;;2.2;0.8;;;;;;;21.06;37.10938;925.0602;;;;
2021/04/28 12:08:26;;;;;;;0.7;0.5;;;;;;;21.12;36.33105;925.0659;;;;
2021/04/28 12:10:55;;;;;;;2.9;1.1;;;;;;;20.83;38.00195;925.0114;;;;
2021/04/28 12:13:24;;;;;;;3;1.5;;;;;;;20.85;40.24805;925.0262;;;;
2021/04/28 12:16:07;;;;;;;0.5;0.5;;;;;;;21;37.75977;925.0002;;;;
2021/04/28 12:18:39;;;;;;;1.3;0.7;;;;;;;21.01;38.16895;925.0252;;;;
2021/04/28 12:21:11;;;;;;;1;0.7;;;;;;;20.7;39.31055;924.9677;;;;
2021/04/28 12:23:39;;;;;;;2.8;0.8;;;;;;;20.71;40.35254;924.9659;;;;
2021/04/28 12:26:10;;;;;;;1.7;0.8;;;;;;;20.9;37.33008;924.9177;;;;
2021/04/28 12:28:41;;;;;;;1;0.7;;;;;;;20.95;36.75;924.9171;;;;
2021/04/28 12:31:11;;;;;;;1.1;0.7;;;;;;;20.77;39.09473;924.9575;;;;
2021/04/28 12:33:36;;;;;;;1.3;0.7;;;;;;;20.77;37.93848;924.89;;;;
2021/04/28 12:36:04;;;;;;;1.9;0.7;;;;;;;20.83;36.99609;924.9411;;;;
2021/04/28 12:38:29;;;;;;;1;0.9;;;;;;;20.95;38.39844;924.9119;;;;
2021/04/28 12:40:55;;;;;;;0.9;0.7;;;;;;;21.08;37.3916;924.9;;;;
2021/04/28 12:43:20;;;;;;;0.8;0.6;;;;;;;20.89;37.96094;924.927;;;;
2021/04/28 12:45:48;;;;;;;0.8;0.6;;;;;;;20.95;37.58008;924.8934;;;;
2021/04/28 12:48:25;;;;;;;0.9;0.6;;;;;;;21.02;38.19336;924.8915;;;;
2021/04/28 12:50:52;;;;;;;2;1;;;;;;;21;37.44336;924.8781;;;;
2021/04/28 12:53:17;;;;;;;1.2;0.8;;;;;;;21.1;37.88574;924.8767;;;;
2021/04/28 12:55:42;;;;;;;2.3;1.2;;;;;;;20.92;39.24902;924.772;;;;
2021/04/28 12:58:07;;;;;;;2.6;0.8;;;;;;;20.85;40.3877;924.8511;;;;
2021/04/28 13:00:35;;;;;;;1.4;0.9;;;;;;;20.84;38.50586;924.9112;;;;
2021/04/28 13:03:01;;;;;;;0.7;0.7;;;;;;;21.17;40.72168;924.8188;;;;
2021/04/28 13:05:26;;;;;;;1.4;0.6;;;;;;;21.22;38.25781;924.878;;;;
2021/04/28 13:07:54;;;;;;;1.1;0.6;;;;;;;21.27;38.21484;924.7891;;;;
2021/04/28 13:10:19;;;;;;;0.8;0.5;;;;;;;21.36;38.00098;924.7883;;;;
2021/04/28 13:12:47;;;;;;;1.6;0.8;;;;;;;21.34;38.60742;924.7888;;;;
2021/04/28 13:15:33;;;;;;;1;0.6;;;;;;;21.82;38.47363;924.7374;;;;
2021/04/28 13:18:01;;;;;;;1.1;0.9;;;;;;;21.97;35.95508;924.7729;;;;
2021/04/28 13:20:29;;;;;;;1.3;0.8;;;;;;;21.85;36.16797;924.7114;;;;
2021/04/28 13:22:59;;;;;;;0.8;0.7;;;;;;;22.06;37.88477;924.6445;;;;
2021/04/28 13:25:36;;;;;;;0.9;0.7;;;;;;;22.25;34.66504;924.6136;;;;
2021/04/28 13:28:02;;;;;;;1.6;0.9;;;;;;;22.3;35.16113;924.5653;;;;
2021/04/28 13:30:35;;;;;;;0.7;0.6;;;;;;;22.39;37.65527;924.5315;;;;
2021/04/28 13:33:04;;;;;;;1.3;0.8;;;;;;;22.43;35.55762;924.5346;;;;
2021/04/28 13:35:29;;;;;;;6.7;1.1;;;;;;;22.22;35.07227;924.5292;;;;
2021/04/28 13:37:56;;;;;;;0.4;0.3;;;;;;;21.66;35.49707;924.5225;;;;
2021/04/28 13:40:23;;;;;;;1.2;0.8;;;;;;;21.97;36.55371;924.4874;;;;
2021/04/28 13:42:46;;;;;;;2.1;0.7;;;;;;;22.37;34.46289;924.4694;;;;
2021/04/28 13:45:12;;;;;;;0.6;0.6;;;;;;;22.57;34.37305;924.4299;;;;
2021/04/28 13:47:37;;;;;;;0.9;0.6;;;;;;;22.76;34.79785;924.3795;;;;
2021/04/28 13:50:02;;;;;;;1.2;0.9;;;;;;;22.65;35.64648;924.3189;;;;
2021/04/28 13:52:27;;;;;;;1.5;0.8;;;;;;;22.37;35.1543;924.3928;;;;
2021/04/28 13:54:52;;;;;;;0.6;0.5;;;;;;;22.33;35.76172;924.3398;;;;
2021/04/28 13:57:20;;;;;;;0.9;0.5;;;;;;;22.25;34.95801;924.2559;;;;
2021/04/28 13:59:45;;;;;;;0.8;0.7;;;;;;;21.78;34.58105;924.1747;;;;
2021/04/28 14:02:12;;;;;;;1.4;0.7;;;;;;;21.6;36.55762;924.2122;;;;
2021/04/28 14:04:37;;;;;;;0.6;0.6;;;;;;;21.65;36.26855;924.0946;;;;
2021/04/28 14:07:02;;;;;;;0.5;0.5;;;;;;;21.4;34.31738;924.1036;;;;
2021/04/28 14:09:27;;;;;;;0.8;0.6;;;;;;;21.53;35.56836;924.1332;;;;
2021/04/28 14:11:53;;;;;;;1.3;0.7;;;;;;;21.69;35.14844;924.0895;;;;
2021/04/28 14:14:22;;;;;;;0.6;0.6;;;;;;;21.45;36.25293;924.0486;;;;
2021/04/28 14:16:56;;;;;;;14.4;0.9;;;;;;;21.47;35.35352;924.0634;;;;
2021/04/28 14:19:31;;;;;;;1.3;1.1;;;;;;;21.53;36.62207;924.0237;;;;
2021/04/28 14:21:59;;;;;;;1.6;0.8;;;;;;;21.66;37.11328;924.0053;;;;
2021/04/28 14:24:30;;;;;;;2.1;0.8;;;;;;;21.48;35.8916;923.9934;;;;
2021/04/28 14:26:55;;;;;;;1;0.5;;;;;;;21.69;34.74902;923.9348;;;;
2021/04/28 14:29:23;;;;;;;0.9;0.7;;;;;;;21.88;34.06152;923.9462;;;;
2021/04/28 14:31:49;;;;;;;0.4;0.4;;;;;;;21.94;34.60547;923.9246;;;;